Eagle County Regional Airport
KEGE : now visible

Airfield :











YOU CAN JOIN US ON...

 
LOGIN :

Register | Disclaimer

   EN    FR    IT 

 









Legend :    VFR   Marginal VFR   IFR   Intensive IFR   Very Intensive IFR
Visi :
Ceiling :
>= 8 km
>= 3000ft
5 to 8 km
1000 to 3000 ft
1500m to 5 km
500 to 1000 ft
800 to 1500m
200 to 500 ft
< 800m
< 200 ft
Symbols :   Thunderstorms  Fog  Heavy snow  Heavy precipitations  Wind > 20 kt






- Airport Elevation : 6548 ft
- IATA code : EGE


KEGE - Eagle County Regional

CURRENT METAR :
  • 202256Z 00000KT 1 3/4SM -SN BR OVC016 01/M01 A2996 RMK AO2 SNB2157 SLP065 P0000 T00111006

EXPIRED METARs :
  • 202234Z 27003KT 1 3/4SM -SN BR FEW002 OVC016 02/M01 A2995 RMK AO2 VIS 1V3 SNB2157 P0000
  • 202201Z 00000KT 1 3/4SM -SN BKN002 OVC008 02/M01 A2996 RMK AO2 VIS 1V5 SNB2157 P0000
  • 202149Z 00000KT 3SM UP OVC004 03/00 A2995 RMK AO2 UPB2058E04B31RAB04E31SNE2058 CIG 002V008 P0000
  • 202137Z 00000KT 1 1/2SM UP BR BKN004 OVC008 03/01 A2994 RMK AO2 VIS 3/4V2 1/2 UPB2058E04B31RAB04E31SNE2058 CIG 002V006 P0000
  • 202124Z 00000KT 1SM -RA OVC004 03/00 A2994 RMK AO2 UPB2058E04RAB04SNE2058 CIG 002V005 P0000 RVRNO
  • 202110Z 00000KT 1 1/4SM -RA BKN004 BKN007 OVC013 03/01 A2995 RMK AO2 UPB2058E04RAB04SNE2058 P0000
  • 202056Z 00000KT 1SM -SN SCT004 OVC013 03/00 A2994 RMK AO2 SLP058 P0000 60000 T00280000 53005 RVRNO
  • 202047Z 00000KT 1 1/4SM -SN BKN004 BKN010 OVC015 03/00 A2994 RMK AO2 VIS 1V2 CIG 003V007 P0000
  • 202013Z 00000KT 1SM SN BR OVC006 03/00 A2993 RMK AO2 P0000 RVRNO

TAF KEGE
Valid from the 20 at 23:00 until the 21 at 18:00 UTC


202309Z 2023/2118 01009KT 3SM -SHRASN BR SCT012 OVC027
TEMPO 2023/2103 1SM -SHSN BR BKN004 OVC012
FM210300 08007KT 2SM -SHSNRA BR SCT008 OVC025
FM210500 09006KT P6SM VCSH SCT014 OVC030
FM211700 27009KT P6SM FEW045 SCT180
KZDV FIR / North America



MET'MAP, your aeronautical weather chart ! - Copyright ORBIFLY December 2007 - Disclaimer

ORBIFLY MET'MAP TEAM :

Programming & Development : Alexandra Zaïnal
Original concept : Baudouin d'Aumeries
Technical & hardware support : Manuel Goepfert
Assistance : Marc-Olivier Méhu

Contact : metmap@orbifly.com




SOURCES & CREDITS :

   NOAA       Earth
Advisory